sensor_id;sensor_type;location;lat;lon;timestamp;P1;durP1;ratioP1;P2;durP2;ratioP2
37907;SDS011;23740;51.550;6.846;2023-07-22T00:01:27;6.95;;;4.13;;
37907;SDS011;23740;51.550;6.846;2023-07-22T00:03:55;10.20;;;4.85;;
37907;SDS011;23740;51.550;6.846;2023-07-22T00:06:23;8.77;;;4.82;;
37907;SDS011;23740;51.550;6.846;2023-07-22T00:08:52;7.65;;;4.47;;
37907;SDS011;23740;51.550;6.846;2023-07-22T00:11:21;10.00;;;4.85;;
37907;SDS011;23740;51.550;6.846;2023-07-22T00:13:48;8.27;;;5.32;;
37907;SDS011;23740;51.550;6.846;2023-07-22T00:16:16;7.95;;;4.20;;
37907;SDS011;23740;51.550;6.846;2023-07-22T00:18:44;7.63;;;4.45;;
37907;SDS011;23740;51.550;6.846;2023-07-22T00:21:12;8.88;;;4.65;;
37907;SDS011;23740;51.550;6.846;2023-07-22T00:23:39;8.48;;;4.82;;
37907;SDS011;23740;51.550;6.846;2023-07-22T00:26:09;9.35;;;5.45;;
37907;SDS011;23740;51.550;6.846;2023-07-22T00:28:39;8.65;;;4.53;;
37907;SDS011;23740;51.550;6.846;2023-07-22T00:31:07;9.80;;;5.35;;
37907;SDS011;23740;51.550;6.846;2023-07-22T00:33:35;7.20;;;4.78;;
37907;SDS011;23740;51.550;6.846;2023-07-22T00:36:03;9.15;;;5.03;;
37907;SDS011;23740;51.550;6.846;2023-07-22T00:38:31;10.02;;;5.10;;
37907;SDS011;23740;51.550;6.846;2023-07-22T00:40:59;7.97;;;4.68;;
37907;SDS011;23740;51.550;6.846;2023-07-22T00:43:32;7.00;;;4.38;;
37907;SDS011;23740;51.550;6.846;2023-07-22T00:46:00;7.20;;;4.38;;
37907;SDS011;23740;51.550;6.846;2023-07-22T00:48:27;7.38;;;4.50;;
37907;SDS011;23740;51.550;6.846;2023-07-22T00:50:55;7.65;;;4.05;;
37907;SDS011;23740;51.550;6.846;2023-07-22T00:53:26;10.05;;;4.95;;
37907;SDS011;23740;51.550;6.846;2023-07-22T00:55:54;8.85;;;4.70;;
37907;SDS011;23740;51.550;6.846;2023-07-22T00:58:22;7.25;;;5.03;;
37907;SDS011;23740;51.550;6.846;2023-07-22T01:00:53;10.20;;;4.80;;
37907;SDS011;23740;51.550;6.846;2023-07-22T01:03:21;8.98;;;4.70;;
37907;SDS011;23740;51.550;6.846;2023-07-22T01:05:49;10.02;;;5.10;;
37907;SDS011;23740;51.550;6.846;2023-07-22T01:08:19;8.52;;;4.75;;
37907;SDS011;23740;51.550;6.846;2023-07-22T01:10:47;6.40;;;4.05;;
37907;SDS011;23740;51.550;6.846;2023-07-22T01:13:15;7.07;;;4.65;;
37907;SDS011;23740;51.550;6.846;2023-07-22T01:15:45;8.73;;;5.07;;
37907;SDS011;23740;51.550;6.846;2023-07-22T01:18:14;8.88;;;4.53;;
37907;SDS011;23740;51.550;6.846;2023-07-22T01:20:42;8.23;;;5.38;;
37907;SDS011;23740;51.550;6.846;2023-07-22T01:23:11;7.50;;;4.45;;
37907;SDS011;23740;51.550;6.846;2023-07-22T01:25:39;8.40;;;4.78;;
37907;SDS011;23740;51.550;6.846;2023-07-22T01:28:13;7.45;;;4.10;;
37907;SDS011;23740;51.550;6.846;2023-07-22T01:30:41;9.48;;;4.82;;
37907;SDS011;23740;51.550;6.846;2023-07-22T01:33:09;7.32;;;4.03;;
37907;SDS011;23740;51.550;6.846;2023-07-22T01:35:36;7.45;;;4.80;;
37907;SDS011;23740;51.550;6.846;2023-07-22T01:38:04;7.95;;;4.63;;
37907;SDS011;23740;51.550;6.846;2023-07-22T01:40:35;6.30;;;4.28;;
37907;SDS011;23740;51.550;6.846;2023-07-22T01:43:03;9.23;;;4.38;;
37907;SDS011;23740;51.550;6.846;2023-07-22T01:45:31;8.25;;;4.28;;
37907;SDS011;23740;51.550;6.846;2023-07-22T01:47:59;6.35;;;4.28;;
37907;SDS011;23740;51.550;6.846;2023-07-22T01:50:27;6.97;;;4.10;;
37907;SDS011;23740;51.550;6.846;2023-07-22T01:52:55;6.60;;;4.50;;
37907;SDS011;23740;51.550;6.846;2023-07-22T01:55:22;8.30;;;5.05;;
37907;SDS011;23740;51.550;6.846;2023-07-22T01:57:52;8.10;;;4.85;;
37907;SDS011;23740;51.550;6.846;2023-07-22T02:00:19;7.82;;;4.28;;
37907;SDS011;23740;51.550;6.846;2023-07-22T02:02:47;6.72;;;4.18;;
37907;SDS011;23740;51.550;6.846;2023-07-22T02:05:15;8.82;;;4.90;;
37907;SDS011;23740;51.550;6.846;2023-07-22T02:07:44;7.30;;;3.90;;
37907;SDS011;23740;51.550;6.846;2023-07-22T02:10:12;7.75;;;4.45;;
37907;SDS011;23740;51.550;6.846;2023-07-22T02:12:40;7.68;;;5.13;;
37907;SDS011;23740;51.550;6.846;2023-07-22T02:15:09;7.03;;;4.57;;
37907;SDS011;23740;51.550;6.846;2023-07-22T02:17:37;7.53;;;4.57;;
37907;SDS011;23740;51.550;6.846;2023-07-22T02:20:06;7.95;;;4.88;;
37907;SDS011;23740;51.550;6.846;2023-07-22T02:22:35;8.23;;;4.65;;
37907;SDS011;23740;51.550;6.846;2023-07-22T02:25:03;9.43;;;4.28;;
37907;SDS011;23740;51.550;6.846;2023-07-22T02:27:32;8.45;;;4.40;;
37907;SDS011;23740;51.550;6.846;2023-07-22T02:30:01;8.00;;;4.60;;
37907;SDS011;23740;51.550;6.846;2023-07-22T02:32:32;10.65;;;5.28;;
37907;SDS011;23740;51.550;6.846;2023-07-22T02:34:59;6.05;;;4.15;;
37907;SDS011;23740;51.550;6.846;2023-07-22T02:37:27;6.75;;;4.50;;
37907;SDS011;23740;51.550;6.846;2023-07-22T02:39:55;8.95;;;4.80;;
37907;SDS011;23740;51.550;6.846;2023-07-22T02:42:23;9.07;;;4.78;;
37907;SDS011;23740;51.550;6.846;2023-07-22T02:44:51;8.18;;;4.72;;
37907;SDS011;23740;51.550;6.846;2023-07-22T02:47:19;7.22;;;4.28;;
37907;SDS011;23740;51.550;6.846;2023-07-22T02:49:48;7.18;;;4.10;;
37907;SDS011;23740;51.550;6.846;2023-07-22T02:52:16;7.95;;;4.35;;
37907;SDS011;23740;51.550;6.846;2023-07-22T02:55:03;7.50;;;4.55;;
37907;SDS011;23740;51.550;6.846;2023-07-22T02:57:32;7.60;;;4.57;;
37907;SDS011;23740;51.550;6.846;2023-07-22T03:00:01;7.45;;;4.15;;
37907;SDS011;23740;51.550;6.846;2023-07-22T03:02:33;8.98;;;4.80;;
37907;SDS011;23740;51.550;6.846;2023-07-22T03:05:03;8.75;;;4.38;;
37907;SDS011;23740;51.550;6.846;2023-07-22T03:07:34;9.00;;;4.47;;
37907;SDS011;23740;51.550;6.846;2023-07-22T03:10:02;7.93;;;4.45;;
37907;SDS011;23740;51.550;6.846;2023-07-22T03:12:31;7.57;;;4.78;;
37907;SDS011;23740;51.550;6.846;2023-07-22T03:14:58;8.98;;;4.85;;
37907;SDS011;23740;51.550;6.846;2023-07-22T03:17:26;9.32;;;4.80;;
37907;SDS011;23740;51.550;6.846;2023-07-22T03:19:56;8.38;;;4.38;;
37907;SDS011;23740;51.550;6.846;2023-07-22T03:22:25;8.95;;;4.93;;
37907;SDS011;23740;51.550;6.846;2023-07-22T03:24:52;7.75;;;4.93;;
37907;SDS011;23740;51.550;6.846;2023-07-22T03:27:20;7.95;;;4.32;;
37907;SDS011;23740;51.550;6.846;2023-07-22T03:29:48;7.72;;;4.57;;
37907;SDS011;23740;51.550;6.846;2023-07-22T03:32:19;6.30;;;4.43;;
37907;SDS011;23740;51.550;6.846;2023-07-22T03:34:47;7.55;;;4.40;;
37907;SDS011;23740;51.550;6.846;2023-07-22T03:37:15;9.05;;;4.50;;
37907;SDS011;23740;51.550;6.846;2023-07-22T03:39:44;6.97;;;4.38;;
37907;SDS011;23740;51.550;6.846;2023-07-22T03:42:12;8.25;;;4.95;;
37907;SDS011;23740;51.550;6.846;2023-07-22T03:44:39;7.72;;;4.95;;
37907;SDS011;23740;51.550;6.846;2023-07-22T03:47:07;7.88;;;4.00;;
37907;SDS011;23740;51.550;6.846;2023-07-22T03:49:35;8.38;;;4.50;;
37907;SDS011;23740;51.550;6.846;2023-07-22T03:52:03;8.05;;;4.55;;
37907;SDS011;23740;51.550;6.846;2023-07-22T03:54:31;9.27;;;5.22;;
37907;SDS011;23740;51.550;6.846;2023-07-22T03:57:00;6.28;;;4.53;;
37907;SDS011;23740;51.550;6.846;2023-07-22T03:59:28;8.10;;;4.80;;
37907;SDS011;23740;51.550;6.846;2023-07-22T04:01:56;8.35;;;4.03;;
37907;SDS011;23740;51.550;6.846;2023-07-22T04:04:24;7.13;;;4.20;;
37907;SDS011;23740;51.550;6.846;2023-07-22T04:06:51;6.95;;;3.70;;
37907;SDS011;23740;51.550;6.846;2023-07-22T04:09:19;7.18;;;4.10;;
37907;SDS011;23740;51.550;6.846;2023-07-22T04:11:47;9.35;;;4.85;;
37907;SDS011;23740;51.550;6.846;2023-07-22T04:14:17;7.55;;;4.20;;
37907;SDS011;23740;51.550;6.846;2023-07-22T04:16:48;9.10;;;4.57;;
37907;SDS011;23740;51.550;6.846;2023-07-22T04:19:15;8.85;;;4.38;;
37907;SDS011;23740;51.550;6.846;2023-07-22T04:21:44;7.50;;;4.50;;
37907;SDS011;23740;51.550;6.846;2023-07-22T04:24:11;8.80;;;4.75;;
37907;SDS011;23740;51.550;6.846;2023-07-22T04:26:40;7.53;;;4.25;;
37907;SDS011;23740;51.550;6.846;2023-07-22T04:29:08;9.57;;;4.60;;
37907;SDS011;23740;51.550;6.846;2023-07-22T04:31:39;9.15;;;5.15;;
37907;SDS011;23740;51.550;6.846;2023-07-22T04:34:07;7.47;;;4.75;;
37907;SDS011;23740;51.550;6.846;2023-07-22T04:36:35;8.77;;;4.90;;
37907;SDS011;23740;51.550;6.846;2023-07-22T04:39:03;8.88;;;4.60;;
37907;SDS011;23740;51.550;6.846;2023-07-22T04:41:32;7.55;;;4.25;;
37907;SDS011;23740;51.550;6.846;2023-07-22T04:43:59;9.77;;;3.97;;
37907;SDS011;23740;51.550;6.846;2023-07-22T04:46:27;7.85;;;4.00;;
37907;SDS011;23740;51.550;6.846;2023-07-22T04:48:57;9.85;;;4.88;;
37907;SDS011;23740;51.550;6.846;2023-07-22T04:51:25;7.22;;;4.43;;
37907;SDS011;23740;51.550;6.846;2023-07-22T04:53:53;8.02;;;4.28;;
37907;SDS011;23740;51.550;6.846;2023-07-22T04:56:20;10.40;;;4.63;;
37907;SDS011;23740;51.550;6.846;2023-07-22T04:58:48;9.75;;;4.88;;
37907;SDS011;23740;51.550;6.846;2023-07-22T05:01:16;8.80;;;4.65;;
37907;SDS011;23740;51.550;6.846;2023-07-22T05:03:44;7.43;;;4.30;;
37907;SDS011;23740;51.550;6.846;2023-07-22T05:06:13;8.68;;;4.20;;
37907;SDS011;23740;51.550;6.846;2023-07-22T05:08:41;9.35;;;4.78;;
37907;SDS011;23740;51.550;6.846;2023-07-22T05:11:09;7.43;;;4.53;;
37907;SDS011;23740;51.550;6.846;2023-07-22T05:13:37;9.18;;;4.63;;
37907;SDS011;23740;51.550;6.846;2023-07-22T05:16:05;7.43;;;3.65;;
37907;SDS011;23740;51.550;6.846;2023-07-22T05:18:32;8.02;;;4.60;;
37907;SDS011;23740;51.550;6.846;2023-07-22T05:21:00;8.63;;;4.90;;
37907;SDS011;23740;51.550;6.846;2023-07-22T05:23:29;7.00;;;4.28;;
37907;SDS011;23740;51.550;6.846;2023-07-22T05:25:57;7.88;;;3.90;;
37907;SDS011;23740;51.550;6.846;2023-07-22T05:28:25;7.35;;;4.45;;
37907;SDS011;23740;51.550;6.846;2023-07-22T05:30:52;6.43;;;4.43;;
37907;SDS011;23740;51.550;6.846;2023-07-22T05:33:21;7.43;;;4.03;;
37907;SDS011;23740;51.550;6.846;2023-07-22T05:35:49;7.15;;;4.50;;
37907;SDS011;23740;51.550;6.846;2023-07-22T05:38:19;7.15;;;4.35;;
37907;SDS011;23740;51.550;6.846;2023-07-22T05:40:48;7.72;;;4.43;;
37907;SDS011;23740;51.550;6.846;2023-07-22T05:43:15;7.45;;;3.90;;
37907;SDS011;23740;51.550;6.846;2023-07-22T05:45:43;7.25;;;4.18;;
37907;SDS011;23740;51.550;6.846;2023-07-22T05:48:11;6.70;;;4.30;;
37907;SDS011;23740;51.550;6.846;2023-07-22T05:50:39;8.70;;;4.57;;
37907;SDS011;23740;51.550;6.846;2023-07-22T05:53:07;6.90;;;4.57;;
37907;SDS011;23740;51.550;6.846;2023-07-22T05:55:35;7.50;;;4.35;;
37907;SDS011;23740;51.550;6.846;2023-07-22T05:58:06;5.93;;;3.97;;
37907;SDS011;23740;51.550;6.846;2023-07-22T06:00:34;9.90;;;5.50;;
37907;SDS011;23740;51.550;6.846;2023-07-22T06:03:02;8.00;;;4.38;;
37907;SDS011;23740;51.550;6.846;2023-07-22T06:05:31;7.25;;;4.47;;
37907;SDS011;23740;51.550;6.846;2023-07-22T06:07:59;8.48;;;5.25;;
37907;SDS011;23740;51.550;6.846;2023-07-22T06:10:27;6.90;;;4.57;;
37907;SDS011;23740;51.550;6.846;2023-07-22T06:12:57;10.40;;;5.00;;
37907;SDS011;23740;51.550;6.846;2023-07-22T06:15:26;8.70;;;5.28;;
37907;SDS011;23740;51.550;6.846;2023-07-22T06:17:54;10.43;;;5.93;;
37907;SDS011;23740;51.550;6.846;2023-07-22T06:20:22;8.30;;;5.25;;
37907;SDS011;23740;51.550;6.846;2023-07-22T06:22:50;8.75;;;5.25;;
37907;SDS011;23740;51.550;6.846;2023-07-22T06:25:17;8.90;;;5.18;;
37907;SDS011;23740;51.550;6.846;2023-07-22T06:27:45;9.95;;;5.15;;
37907;SDS011;23740;51.550;6.846;2023-07-22T06:30:13;8.40;;;4.93;;
37907;SDS011;23740;51.550;6.846;2023-07-22T06:32:42;8.27;;;5.32;;
37907;SDS011;23740;51.550;6.846;2023-07-22T06:35:10;11.15;;;4.97;;
37907;SDS011;23740;51.550;6.846;2023-07-22T06:37:40;10.25;;;5.50;;
37907;SDS011;23740;51.550;6.846;2023-07-22T06:40:08;7.30;;;5.30;;
37907;SDS011;23740;51.550;6.846;2023-07-22T06:42:36;8.50;;;5.85;;
37907;SDS011;23740;51.550;6.846;2023-07-22T06:45:04;7.90;;;5.43;;
37907;SDS011;23740;51.550;6.846;2023-07-22T06:47:32;8.10;;;4.45;;
37907;SDS011;23740;51.550;6.846;2023-07-22T06:50:02;9.18;;;5.60;;
37907;SDS011;23740;51.550;6.846;2023-07-22T06:52:31;10.35;;;5.60;;
37907;SDS011;23740;51.550;6.846;2023-07-22T06:54:59;8.15;;;5.47;;
37907;SDS011;23740;51.550;6.846;2023-07-22T06:57:27;10.75;;;5.45;;
37907;SDS011;23740;51.550;6.846;2023-07-22T06:59:56;8.80;;;4.63;;
37907;SDS011;23740;51.550;6.846;2023-07-22T07:02:24;8.68;;;5.90;;
37907;SDS011;23740;51.550;6.846;2023-07-22T07:04:52;8.32;;;5.18;;
37907;SDS011;23740;51.550;6.846;2023-07-22T07:07:21;7.53;;;4.55;;
37907;SDS011;23740;51.550;6.846;2023-07-22T07:09:48;9.30;;;4.95;;
37907;SDS011;23740;51.550;6.846;2023-07-22T07:12:16;7.53;;;4.95;;
37907;SDS011;23740;51.550;6.846;2023-07-22T07:14:44;10.68;;;5.90;;
37907;SDS011;23740;51.550;6.846;2023-07-22T07:17:12;8.63;;;4.78;;
37907;SDS011;23740;51.550;6.846;2023-07-22T07:19:40;7.90;;;4.90;;
37907;SDS011;23740;51.550;6.846;2023-07-22T07:22:07;7.97;;;4.80;;
37907;SDS011;23740;51.550;6.846;2023-07-22T07:24:36;8.45;;;5.35;;
37907;SDS011;23740;51.550;6.846;2023-07-22T07:27:04;7.97;;;4.95;;
37907;SDS011;23740;51.550;6.846;2023-07-22T07:29:33;7.65;;;5.05;;
37907;SDS011;23740;51.550;6.846;2023-07-22T07:32:19;7.97;;;4.88;;
37907;SDS011;23740;51.550;6.846;2023-07-22T07:34:48;7.40;;;4.05;;
37907;SDS011;23740;51.550;6.846;2023-07-22T07:37:16;7.72;;;4.03;;
37907;SDS011;23740;51.550;6.846;2023-07-22T07:39:45;8.73;;;5.30;;
37907;SDS011;23740;51.550;6.846;2023-07-22T07:42:13;7.50;;;4.28;;
37907;SDS011;23740;51.550;6.846;2023-07-22T07:44:41;8.15;;;4.82;;
37907;SDS011;23740;51.550;6.846;2023-07-22T07:47:10;7.93;;;5.05;;
37907;SDS011;23740;51.550;6.846;2023-07-22T07:49:38;6.88;;;4.43;;
37907;SDS011;23740;51.550;6.846;2023-07-22T07:52:06;7.70;;;4.40;;
37907;SDS011;23740;51.550;6.846;2023-07-22T07:54:34;6.22;;;5.13;;
37907;SDS011;23740;51.550;6.846;2023-07-22T07:57:04;6.63;;;4.25;;
37907;SDS011;23740;51.550;6.846;2023-07-22T07:59:32;6.95;;;5.25;;
37907;SDS011;23740;51.550;6.846;2023-07-22T08:02:03;7.90;;;5.47;;
37907;SDS011;23740;51.550;6.846;2023-07-22T08:04:35;8.13;;;5.60;;
37907;SDS011;23740;51.550;6.846;2023-07-22T08:07:05;6.28;;;5.78;;
37907;SDS011;23740;51.550;6.846;2023-07-22T08:09:36;8.30;;;5.90;;
37907;SDS011;23740;51.550;6.846;2023-07-22T08:12:05;6.72;;;5.15;;
37907;SDS011;23740;51.550;6.846;2023-07-22T08:14:34;6.88;;;6.00;;
37907;SDS011;23740;51.550;6.846;2023-07-22T08:17:02;8.02;;;6.03;;
37907;SDS011;23740;51.550;6.846;2023-07-22T08:19:30;6.68;;;5.95;;
37907;SDS011;23740;51.550;6.846;2023-07-22T08:21:58;5.85;;;4.75;;
37907;SDS011;23740;51.550;6.846;2023-07-22T08:24:26;6.82;;;5.05;;
37907;SDS011;23740;51.550;6.846;2023-07-22T08:26:54;7.55;;;5.30;;
37907;SDS011;23740;51.550;6.846;2023-07-22T08:29:23;6.78;;;5.57;;
37907;SDS011;23740;51.550;6.846;2023-07-22T08:31:51;6.15;;;4.63;;
37907;SDS011;23740;51.550;6.846;2023-07-22T08:34:19;7.65;;;4.90;;
37907;SDS011;23740;51.550;6.846;2023-07-22T08:36:47;6.47;;;4.80;;
37907;SDS011;23740;51.550;6.846;2023-07-22T08:39:15;7.57;;;5.32;;
37907;SDS011;23740;51.550;6.846;2023-07-22T08:41:43;6.43;;;4.78;;
37907;SDS011;23740;51.550;6.846;2023-07-22T08:44:17;6.30;;;4.97;;
37907;SDS011;23740;51.550;6.846;2023-07-22T08:46:51;6.80;;;4.72;;
37907;SDS011;23740;51.550;6.846;2023-07-22T08:49:22;5.25;;;4.05;;
37907;SDS011;23740;51.550;6.846;2023-07-22T08:51:50;5.93;;;4.68;;
37907;SDS011;23740;51.550;6.846;2023-07-22T08:54:18;4.95;;;3.42;;
37907;SDS011;23740;51.550;6.846;2023-07-22T08:56:46;4.85;;;4.13;;
37907;SDS011;23740;51.550;6.846;2023-07-22T08:59:14;6.03;;;4.70;;
37907;SDS011;23740;51.550;6.846;2023-07-22T09:01:42;5.15;;;3.80;;
37907;SDS011;23740;51.550;6.846;2023-07-22T09:04:12;6.53;;;4.28;;
37907;SDS011;23740;51.550;6.846;2023-07-22T09:06:40;4.75;;;4.25;;
37907;SDS011;23740;51.550;6.846;2023-07-22T09:09:09;6.85;;;3.95;;
37907;SDS011;23740;51.550;6.846;2023-07-22T09:11:37;7.45;;;4.35;;
37907;SDS011;23740;51.550;6.846;2023-07-22T09:14:05;5.97;;;3.80;;
37907;SDS011;23740;51.550;6.846;2023-07-22T09:16:34;6.28;;;4.25;;
37907;SDS011;23740;51.550;6.846;2023-07-22T09:19:03;4.85;;;3.80;;
37907;SDS011;23740;51.550;6.846;2023-07-22T09:21:32;4.97;;;3.95;;
37907;SDS011;23740;51.550;6.846;2023-07-22T09:24:04;4.22;;;3.35;;
37907;SDS011;23740;51.550;6.846;2023-07-22T09:26:47;4.07;;;3.20;;
37907;SDS011;23740;51.550;6.846;2023-07-22T09:29:17;6.00;;;3.78;;
37907;SDS011;23740;51.550;6.846;2023-07-22T09:31:48;5.28;;;3.92;;
37907;SDS011;23740;51.550;6.846;2023-07-22T09:34:18;4.68;;;3.25;;
37907;SDS011;23740;51.550;6.846;2023-07-22T09:36:51;4.93;;;3.28;;
37907;SDS011;23740;51.550;6.846;2023-07-22T09:39:19;4.88;;;3.80;;
37907;SDS011;23740;51.550;6.846;2023-07-22T09:41:47;4.88;;;3.10;;
37907;SDS011;23740;51.550;6.846;2023-07-22T09:44:15;4.55;;;3.47;;
37907;SDS011;23740;51.550;6.846;2023-07-22T09:46:46;4.18;;;3.53;;
37907;SDS011;23740;51.550;6.846;2023-07-22T09:49:16;5.35;;;4.07;;
37907;SDS011;23740;51.550;6.846;2023-07-22T09:51:44;5.25;;;4.25;;
37907;SDS011;23740;51.550;6.846;2023-07-22T09:54:29;3.70;;;2.92;;
37907;SDS011;23740;51.550;6.846;2023-07-22T09:56:57;4.60;;;3.05;;
37907;SDS011;23740;51.550;6.846;2023-07-22T09:59:25;3.92;;;2.92;;
37907;SDS011;23740;51.550;6.846;2023-07-22T10:01:56;3.78;;;2.83;;
37907;SDS011;23740;51.550;6.846;2023-07-22T10:04:27;3.13;;;2.83;;
37907;SDS011;23740;51.550;6.846;2023-07-22T10:06:55;3.05;;;2.67;;
37907;SDS011;23740;51.550;6.846;2023-07-22T10:09:23;6.65;;;2.80;;
37907;SDS011;23740;51.550;6.846;2023-07-22T10:11:53;4.00;;;2.50;;
37907;SDS011;23740;51.550;6.846;2023-07-22T10:14:26;3.42;;;2.67;;
37907;SDS011;23740;51.550;6.846;2023-07-22T10:16:57;3.30;;;2.60;;
37907;SDS011;23740;51.550;6.846;2023-07-22T10:19:26;3.92;;;2.58;;
37907;SDS011;23740;51.550;6.846;2023-07-22T10:21:54;3.97;;;2.67;;
37907;SDS011;23740;51.550;6.846;2023-07-22T10:24:22;2.67;;;2.47;;
37907;SDS011;23740;51.550;6.846;2023-07-22T10:26:49;3.67;;;2.80;;
37907;SDS011;23740;51.550;6.846;2023-07-22T10:29:19;2.92;;;2.53;;
37907;SDS011;23740;51.550;6.846;2023-07-22T10:31:47;3.38;;;2.97;;
37907;SDS011;23740;51.550;6.846;2023-07-22T10:34:20;2.65;;;2.45;;
37907;SDS011;23740;51.550;6.846;2023-07-22T10:36:48;2.90;;;2.55;;
37907;SDS011;23740;51.550;6.846;2023-07-22T10:39:24;3.38;;;2.72;;
37907;SDS011;23740;51.550;6.846;2023-07-22T10:41:57;3.38;;;2.80;;
37907;SDS011;23740;51.550;6.846;2023-07-22T10:44:30;4.57;;;2.65;;
37907;SDS011;23740;51.550;6.846;2023-07-22T10:46:58;3.03;;;2.72;;
37907;SDS011;23740;51.550;6.846;2023-07-22T10:49:27;4.60;;;2.80;;
37907;SDS011;23740;51.550;6.846;2023-07-22T10:52:10;3.72;;;3.42;;
37907;SDS011;23740;51.550;6.846;2023-07-22T10:54:39;3.22;;;2.30;;
37907;SDS011;23740;51.550;6.846;2023-07-22T10:57:23;3.03;;;2.55;;
37907;SDS011;23740;51.550;6.846;2023-07-22T10:59:55;4.18;;;3.15;;
37907;SDS011;23740;51.550;6.846;2023-07-22T11:02:23;3.67;;;2.13;;
37907;SDS011;23740;51.550;6.846;2023-07-22T11:04:52;3.03;;;2.28;;
37907;SDS011;23740;51.550;6.846;2023-07-22T11:07:31;4.90;;;2.30;;
37907;SDS011;23740;51.550;6.846;2023-07-22T11:10:10;2.45;;;2.22;;
37907;SDS011;23740;51.550;6.846;2023-07-22T11:12:40;2.70;;;2.50;;
37907;SDS011;23740;51.550;6.846;2023-07-22T11:15:11;2.42;;;1.98;;
37907;SDS011;23740;51.550;6.846;2023-07-22T11:17:42;4.40;;;2.40;;
37907;SDS011;23740;51.550;6.846;2023-07-22T11:20:10;1.85;;;1.75;;
37907;SDS011;23740;51.550;6.846;2023-07-22T11:22:41;2.58;;;2.20;;
37907;SDS011;23740;51.550;6.846;2023-07-22T11:25:16;2.35;;;2.13;;
37907;SDS011;23740;51.550;6.846;2023-07-22T11:27:44;3.03;;;2.72;;
37907;SDS011;23740;51.550;6.846;2023-07-22T11:30:13;3.53;;;2.90;;
37907;SDS011;23740;51.550;6.846;2023-07-22T11:32:42;2.80;;;2.25;;
37907;SDS011;23740;51.550;6.846;2023-07-22T11:35:11;2.53;;;2.08;;
37907;SDS011;23740;51.550;6.846;2023-07-22T11:37:39;2.20;;;2.00;;
37907;SDS011;23740;51.550;6.846;2023-07-22T11:40:07;3.38;;;2.22;;
37907;SDS011;23740;51.550;6.846;2023-07-22T11:42:44;2.85;;;1.95;;
37907;SDS011;23740;51.550;6.846;2023-07-22T11:45:15;3.58;;;1.80;;
37907;SDS011;23740;51.550;6.846;2023-07-22T11:47:45;3.42;;;2.97;;
37907;SDS011;23740;51.550;6.846;2023-07-22T11:50:13;2.72;;;2.00;;
37907;SDS011;23740;51.550;6.846;2023-07-22T11:52:41;3.80;;;2.55;;
37907;SDS011;23740;51.550;6.846;2023-07-22T11:55:09;2.25;;;2.05;;
37907;SDS011;23740;51.550;6.846;2023-07-22T11:57:51;3.30;;;2.80;;
37907;SDS011;23740;51.550;6.846;2023-07-22T12:00:21;2.22;;;2.03;;
37907;SDS011;23740;51.550;6.846;2023-07-22T12:02:49;2.00;;;1.90;;
37907;SDS011;23740;51.550;6.846;2023-07-22T12:05:20;2.78;;;2.00;;
37907;SDS011;23740;51.550;6.846;2023-07-22T12:07:48;2.83;;;2.15;;
37907;SDS011;23740;51.550;6.846;2023-07-22T12:10:16;2.30;;;1.90;;
37907;SDS011;23740;51.550;6.846;2023-07-22T12:12:45;2.10;;;1.88;;
37907;SDS011;23740;51.550;6.846;2023-07-22T12:15:16;1.92;;;1.73;;
37907;SDS011;23740;51.550;6.846;2023-07-22T12:17:46;2.13;;;1.80;;
37907;SDS011;23740;51.550;6.846;2023-07-22T12:20:15;3.42;;;2.13;;
37907;SDS011;23740;51.550;6.846;2023-07-22T12:22:43;2.53;;;1.67;;
37907;SDS011;23740;51.550;6.846;2023-07-22T12:25:11;2.10;;;1.60;;
37907;SDS011;23740;51.550;6.846;2023-07-22T12:27:38;2.60;;;1.63;;
37907;SDS011;23740;51.550;6.846;2023-07-22T12:30:06;2.45;;;1.75;;
37907;SDS011;23740;51.550;6.846;2023-07-22T12:32:35;2.20;;;1.92;;
37907;SDS011;23740;51.550;6.846;2023-07-22T12:35:05;1.42;;;1.33;;
37907;SDS011;23740;51.550;6.846;2023-07-22T12:37:33;2.03;;;1.63;;
37907;SDS011;23740;51.550;6.846;2023-07-22T12:40:01;3.03;;;1.85;;
37907;SDS011;23740;51.550;6.846;2023-07-22T12:42:34;1.95;;;1.55;;
37907;SDS011;23740;51.550;6.846;2023-07-22T12:45:02;2.53;;;1.70;;
37907;SDS011;23740;51.550;6.846;2023-07-22T12:47:31;1.52;;;1.42;;
37907;SDS011;23740;51.550;6.846;2023-07-22T12:49:58;2.35;;;1.70;;
37907;SDS011;23740;51.550;6.846;2023-07-22T12:52:28;2.42;;;2.10;;
37907;SDS011;23740;51.550;6.846;2023-07-22T12:54:55;4.13;;;2.25;;
37907;SDS011;23740;51.550;6.846;2023-07-22T12:57:23;2.25;;;2.05;;
37907;SDS011;23740;51.550;6.846;2023-07-22T12:59:51;2.17;;;1.92;;
37907;SDS011;23740;51.550;6.846;2023-07-22T13:02:19;2.78;;;2.05;;
37907;SDS011;23740;51.550;6.846;2023-07-22T13:04:49;2.08;;;1.48;;
37907;SDS011;23740;51.550;6.846;2023-07-22T13:07:17;2.20;;;1.80;;
37907;SDS011;23740;51.550;6.846;2023-07-22T13:09:48;2.22;;;2.03;;
37907;SDS011;23740;51.550;6.846;2023-07-22T13:12:22;2.25;;;2.05;;
37907;SDS011;23740;51.550;6.846;2023-07-22T13:14:50;1.90;;;1.65;;
37907;SDS011;23740;51.550;6.846;2023-07-22T13:17:18;2.03;;;1.83;;
37907;SDS011;23740;51.550;6.846;2023-07-22T13:19:46;3.13;;;1.83;;
37907;SDS011;23740;51.550;6.846;2023-07-22T13:22:14;3.15;;;2.10;;
37907;SDS011;23740;51.550;6.846;2023-07-22T13:24:41;2.97;;;2.05;;
37907;SDS011;23740;51.550;6.846;2023-07-22T13:27:11;2.88;;;2.15;;
37907;SDS011;23740;51.550;6.846;2023-07-22T13:29:38;2.03;;;1.77;;
37907;SDS011;23740;51.550;6.846;2023-07-22T13:32:06;2.30;;;1.50;;
37907;SDS011;23740;51.550;6.846;2023-07-22T13:34:34;2.85;;;1.63;;
37907;SDS011;23740;51.550;6.846;2023-07-22T13:37:04;2.83;;;1.55;;
37907;SDS011;23740;51.550;6.846;2023-07-22T13:39:33;4.80;;;2.05;;
37907;SDS011;23740;51.550;6.846;2023-07-22T13:42:00;2.72;;;2.05;;
37907;SDS011;23740;51.550;6.846;2023-07-22T13:44:30;1.85;;;1.75;;
37907;SDS011;23740;51.550;6.846;2023-07-22T13:46:57;3.92;;;1.73;;
37907;SDS011;23740;51.550;6.846;2023-07-22T13:49:25;2.33;;;1.52;;
37907;SDS011;23740;51.550;6.846;2023-07-22T13:51:53;1.95;;;1.52;;
37907;SDS011;23740;51.550;6.846;2023-07-22T13:54:21;1.85;;;1.52;;
37907;SDS011;23740;51.550;6.846;2023-07-22T13:56:48;2.05;;;1.77;;
37907;SDS011;23740;51.550;6.846;2023-07-22T13:59:16;2.65;;;2.15;;
37907;SDS011;23740;51.550;6.846;2023-07-22T14:01:45;3.25;;;2.03;;
37907;SDS011;23740;51.550;6.846;2023-07-22T14:04:14;1.85;;;1.67;;
37907;SDS011;23740;51.550;6.846;2023-07-22T14:06:41;2.28;;;1.77;;
37907;SDS011;23740;51.550;6.846;2023-07-22T14:09:09;2.58;;;2.38;;
37907;SDS011;23740;51.550;6.846;2023-07-22T14:11:37;2.92;;;2.08;;
37907;SDS011;23740;51.550;6.846;2023-07-22T14:14:08;2.03;;;1.92;;
37907;SDS011;23740;51.550;6.846;2023-07-22T14:16:35;2.38;;;1.85;;
37907;SDS011;23740;51.550;6.846;2023-07-22T14:19:05;2.25;;;1.90;;
37907;SDS011;23740;51.550;6.846;2023-07-22T14:21:33;2.38;;;2.17;;
37907;SDS011;23740;51.550;6.846;2023-07-22T14:24:01;2.20;;;1.65;;
37907;SDS011;23740;51.550;6.846;2023-07-22T14:26:29;2.15;;;1.92;;
37907;SDS011;23740;51.550;6.846;2023-07-22T14:28:57;1.90;;;1.75;;
37907;SDS011;23740;51.550;6.846;2023-07-22T14:31:24;2.05;;;1.60;;
37907;SDS011;23740;51.550;6.846;2023-07-22T14:33:53;1.98;;;1.65;;
37907;SDS011;23740;51.550;6.846;2023-07-22T14:36:22;2.30;;;1.92;;
37907;SDS011;23740;51.550;6.846;2023-07-22T14:38:50;2.30;;;2.03;;
37907;SDS011;23740;51.550;6.846;2023-07-22T14:41:18;2.92;;;2.20;;
37907;SDS011;23740;51.550;6.846;2023-07-22T14:43:46;1.80;;;1.58;;
37907;SDS011;23740;51.550;6.846;2023-07-22T14:46:13;3.05;;;2.05;;
37907;SDS011;23740;51.550;6.846;2023-07-22T14:48:41;2.55;;;1.85;;
37907;SDS011;23740;51.550;6.846;2023-07-22T14:51:12;2.83;;;1.50;;
37907;SDS011;23740;51.550;6.846;2023-07-22T14:53:41;2.78;;;1.80;;
37907;SDS011;23740;51.550;6.846;2023-07-22T14:56:09;3.25;;;1.90;;
37907;SDS011;23740;51.550;6.846;2023-07-22T14:58:37;2.50;;;1.75;;